createdAt,value
2023-12-12T00:01:23.305Z,3.90
2023-12-12T00:03:51.695Z,2.57
2023-12-12T00:06:18.808Z,4.53
2023-12-12T00:08:45.711Z,1.90
2023-12-12T00:11:12.710Z,2.60
2023-12-12T00:13:39.775Z,1.23
2023-12-12T00:16:08.573Z,3.00
2023-12-12T00:18:36.847Z,1.03
2023-12-12T00:21:04.232Z,2.00
2023-12-12T00:23:31.231Z,1.23
2023-12-12T00:25:59.029Z,3.00
2023-12-12T00:28:27.178Z,3.87
2023-12-12T00:30:54.407Z,3.30
2023-12-12T00:33:22.384Z,1.63
2023-12-12T00:35:49.599Z,2.67
2023-12-12T00:38:16.556Z,3.33
2023-12-12T00:40:52.879Z,3.27
2023-12-12T00:43:19.945Z,2.20
2023-12-12T00:45:47.329Z,0.93
2023-12-12T00:48:14.314Z,2.77
2023-12-12T00:50:41.289Z,4.23
2023-12-12T00:53:08.132Z,3.13
2023-12-12T00:55:35.126Z,2.63
2023-12-12T00:58:02.149Z,2.30
2023-12-12T01:00:29.090Z,0.73
2023-12-12T01:02:56.302Z,1.43
2023-12-12T01:05:23.292Z,1.70
2023-12-12T01:07:50.155Z,3.93
2023-12-12T01:10:17.178Z,1.80
2023-12-12T01:12:44.177Z,3.57
2023-12-12T01:15:11.253Z,1.77
2023-12-12T01:17:38.696Z,4.67
2023-12-12T01:20:08.959Z,2.20
2023-12-12T01:22:36.387Z,2.20
2023-12-12T01:25:04.964Z,1.43
2023-12-12T01:27:32.009Z,2.33
2023-12-12T01:29:59.158Z,0.80
2023-12-12T01:32:26.841Z,2.90
2023-12-12T01:34:53.843Z,2.27
2023-12-12T01:37:20.819Z,3.70
2023-12-12T01:39:47.795Z,1.87
2023-12-12T01:42:14.656Z,2.03
2023-12-12T01:44:41.594Z,0.80
2023-12-12T01:47:09.611Z,1.53
2023-12-12T01:49:37.030Z,1.67
2023-12-12T01:52:04.369Z,1.40
2023-12-12T01:54:32.064Z,2.10
2023-12-12T01:56:59.290Z,4.90
2023-12-12T01:59:27.083Z,2.00
2023-12-12T02:01:55.464Z,1.47
2023-12-12T02:04:22.977Z,1.50
2023-12-12T02:06:50.879Z,3.17
2023-12-12T02:09:17.999Z,2.23
2023-12-12T02:11:45.549Z,2.47
2023-12-12T02:14:12.460Z,2.10
2023-12-12T02:16:40.317Z,2.67
2023-12-12T02:19:07.497Z,3.13
2023-12-12T02:21:34.460Z,0.93
2023-12-12T02:24:02.056Z,1.03
2023-12-12T02:26:29.049Z,1.50
2023-12-12T02:28:56.985Z,1.00
2023-12-12T02:31:24.052Z,1.17
2023-12-12T02:33:50.915Z,1.63
2023-12-12T02:36:18.020Z,1.40
2023-12-12T02:38:44.997Z,1.40
2023-12-12T02:41:11.889Z,2.00
2023-12-12T02:43:38.803Z,2.37
2023-12-12T02:46:05.932Z,1.63
2023-12-12T02:48:33.235Z,3.63
2023-12-12T02:51:00.345Z,0.70
2023-12-12T02:53:27.421Z,0.63
2023-12-12T02:55:54.322Z,5.93
2023-12-12T02:58:21.243Z,2.77
2023-12-12T03:00:48.258Z,2.10
2023-12-12T03:03:15.286Z,4.30
2023-12-12T03:05:42.212Z,3.27
2023-12-12T03:08:09.366Z,1.07
2023-12-12T03:10:36.224Z,2.43
2023-12-12T03:13:03.259Z,1.93
2023-12-12T03:15:30.192Z,1.90
2023-12-12T03:17:57.061Z,3.00
2023-12-12T03:20:24.040Z,1.83
2023-12-12T03:22:50.903Z,4.77
2023-12-12T03:25:17.740Z,1.83
2023-12-12T03:27:44.592Z,1.93
2023-12-12T03:30:11.945Z,2.17
2023-12-12T03:32:39.712Z,3.27
2023-12-12T03:35:06.990Z,1.93
2023-12-12T03:37:34.956Z,1.87
2023-12-12T03:40:03.143Z,3.30
2023-12-12T03:42:30.337Z,1.33
2023-12-12T03:44:57.174Z,0.97
2023-12-12T03:47:24.058Z,2.23
2023-12-12T03:49:51.480Z,2.53
2023-12-12T03:52:18.647Z,2.93
2023-12-12T03:54:45.475Z,3.53
2023-12-12T03:57:12.397Z,1.87
2023-12-12T03:59:39.443Z,2.83
2023-12-12T04:02:06.558Z,4.47
2023-12-12T04:04:33.618Z,2.20
2023-12-12T04:07:00.763Z,2.83
2023-12-12T04:09:27.828Z,2.90
2023-12-12T04:11:54.677Z,5.30
2023-12-12T04:14:21.997Z,1.47
2023-12-12T04:16:48.872Z,4.20
2023-12-12T04:19:15.900Z,1.30
2023-12-12T04:21:44.085Z,3.27
2023-12-12T04:24:11.035Z,1.93
2023-12-12T04:26:38.108Z,4.00
2023-12-12T04:29:05.963Z,1.77
2023-12-12T04:31:33.089Z,2.80
2023-12-12T04:34:00.225Z,1.90
2023-12-12T04:36:27.247Z,2.87
2023-12-12T04:38:54.099Z,1.80
2023-12-12T04:41:21.028Z,3.83
2023-12-12T04:43:47.955Z,4.30
2023-12-12T04:46:21.652Z,2.03
2023-12-12T04:48:49.012Z,4.53
2023-12-12T04:51:16.124Z,2.67
2023-12-12T04:53:43.017Z,3.87
2023-12-12T04:56:10.360Z,2.13
2023-12-12T04:58:37.861Z,3.53
2023-12-12T05:01:05.208Z,1.37
2023-12-12T05:03:34.176Z,2.43
2023-12-12T05:06:01.990Z,3.67
2023-12-12T05:08:28.993Z,3.57
2023-12-12T05:10:56.155Z,4.90
2023-12-12T05:13:23.217Z,3.30
2023-12-12T05:15:50.508Z,2.47
2023-12-12T05:18:18.063Z,2.40
2023-12-12T05:20:45.236Z,3.20
2023-12-12T05:23:12.693Z,3.47
2023-12-12T05:25:41.375Z,1.50
2023-12-12T05:28:08.479Z,2.77
2023-12-12T05:30:37.896Z,4.10
2023-12-12T05:33:06.340Z,3.03
2023-12-12T05:35:33.276Z,4.90
2023-12-12T05:38:00.136Z,3.93
2023-12-12T05:40:27.207Z,2.37
2023-12-12T05:42:54.098Z,3.20
2023-12-12T05:45:20.967Z,2.43
2023-12-12T05:47:48.123Z,3.50
2023-12-12T05:50:15.125Z,4.27
2023-12-12T05:52:42.145Z,4.43
2023-12-12T05:55:10.526Z,3.47
2023-12-12T05:57:37.684Z,4.67
2023-12-12T06:00:06.967Z,5.83
2023-12-12T06:02:39.838Z,2.77
2023-12-12T06:05:09.343Z,2.77
2023-12-12T06:07:37.931Z,2.87
2023-12-12T06:10:06.856Z,2.70
2023-12-12T06:12:33.978Z,4.67
2023-12-12T06:15:01.102Z,3.70
2023-12-12T06:17:28.350Z,3.43
2023-12-12T06:19:55.375Z,3.60
2023-12-12T06:22:22.530Z,4.57
2023-12-12T06:24:52.585Z,3.83
2023-12-12T06:27:21.732Z,5.27
2023-12-12T06:29:50.870Z,6.67
2023-12-12T06:32:18.270Z,8.50
2023-12-12T06:34:46.566Z,6.80
2023-12-12T06:37:13.742Z,11.23
2023-12-12T06:39:40.668Z,5.93
2023-12-12T06:42:07.612Z,7.37
2023-12-12T06:44:34.529Z,6.40
2023-12-12T06:47:01.452Z,7.57
2023-12-12T06:49:28.486Z,5.47
2023-12-12T06:51:55.838Z,6.37
2023-12-12T06:54:22.752Z,4.70
2023-12-12T06:56:49.624Z,8.43
2023-12-12T06:59:16.534Z,8.93
2023-12-12T07:01:43.568Z,5.87
2023-12-12T07:04:10.980Z,4.43
2023-12-12T07:06:37.921Z,6.93
2023-12-12T07:09:05.844Z,5.93
2023-12-12T07:11:33.102Z,7.10
2023-12-12T07:14:00.081Z,7.60
2023-12-12T07:16:27.015Z,7.43
2023-12-12T07:18:55.563Z,6.57
2023-12-12T07:21:23.749Z,8.73
2023-12-12T07:23:53.125Z,9.20
2023-12-12T07:26:22.460Z,7.97
2023-12-12T07:28:50.684Z,7.77
2023-12-12T07:31:17.968Z,6.60
2023-12-12T07:33:44.986Z,6.50
2023-12-12T07:36:11.936Z,10.33
2023-12-12T07:38:38.865Z,8.03
2023-12-12T07:41:06.039Z,7.60
2023-12-12T07:43:33.041Z,7.53
2023-12-12T07:46:00.479Z,8.37
2023-12-12T07:48:27.640Z,7.13
2023-12-12T07:50:55.890Z,8.73
2023-12-12T07:53:25.663Z,8.13
2023-12-12T07:55:52.685Z,9.00
2023-12-12T07:58:19.583Z,8.67
2023-12-12T08:00:46.468Z,10.00
2023-12-12T08:03:14.877Z,8.40
2023-12-12T08:05:41.769Z,8.63
2023-12-12T08:08:11.562Z,8.47
2023-12-12T08:10:38.805Z,7.80
2023-12-12T08:13:05.770Z,7.03
2023-12-12T08:15:33.037Z,6.77
2023-12-12T08:18:00.487Z,10.30
2023-12-12T08:20:27.481Z,6.50
2023-12-12T08:22:54.342Z,7.20
2023-12-12T08:25:22.851Z,6.67
2023-12-12T08:27:50.100Z,6.37
2023-12-12T08:30:17.244Z,6.80
2023-12-12T08:32:44.889Z,5.00
2023-12-12T08:35:12.783Z,5.40
2023-12-12T08:37:39.887Z,5.93
2023-12-12T08:40:07.410Z,5.73
2023-12-12T08:42:35.356Z,6.07
2023-12-12T08:45:03.092Z,5.83
2023-12-12T08:47:30.427Z,5.67
2023-12-12T08:49:57.560Z,6.77
2023-12-12T08:52:24.455Z,5.53
2023-12-12T08:54:51.883Z,5.60
2023-12-12T08:57:19.440Z,4.47
2023-12-12T08:59:46.337Z,4.80
2023-12-12T09:02:13.324Z,5.37
2023-12-12T09:04:40.403Z,5.17
2023-12-12T09:07:08.027Z,4.87
2023-12-12T09:09:35.002Z,4.67
2023-12-12T09:12:02.187Z,5.10
2023-12-12T09:14:29.261Z,5.03
2023-12-12T09:16:56.546Z,4.40
2023-12-12T09:19:23.709Z,5.73
2023-12-12T09:21:50.874Z,6.30
2023-12-12T09:24:17.994Z,5.90
2023-12-12T09:26:45.347Z,5.67
2023-12-12T09:29:12.374Z,5.83
2023-12-12T09:31:39.382Z,4.80
2023-12-12T09:34:07.306Z,4.87
2023-12-12T09:36:34.292Z,4.43
2023-12-12T09:39:01.844Z,5.33
2023-12-12T09:41:29.062Z,6.17
2023-12-12T09:43:56.696Z,6.73
2023-12-12T09:46:24.933Z,5.40
2023-12-12T09:48:54.910Z,4.67
2023-12-12T09:51:25.563Z,5.87
2023-12-12T09:53:53.430Z,5.00
2023-12-12T09:56:20.465Z,5.43
2023-12-12T09:58:49.866Z,6.03
2023-12-12T10:01:17.834Z,6.00
2023-12-12T10:03:45.999Z,5.93
2023-12-12T10:06:14.020Z,5.93
2023-12-12T10:08:41.146Z,6.57
2023-12-12T10:11:10.705Z,6.10
2023-12-12T10:13:57.609Z,7.80
2023-12-12T10:16:27.463Z,7.63
2023-12-12T10:18:56.195Z,7.07
2023-12-12T10:21:24.209Z,6.67
2023-12-12T10:23:53.079Z,7.73
2023-12-12T10:26:32.700Z,6.50
2023-12-12T10:29:03.260Z,7.03
2023-12-12T10:31:30.354Z,6.30
2023-12-12T10:33:59.314Z,5.90
2023-12-12T10:36:27.191Z,6.53
2023-12-12T10:38:55.184Z,8.03
2023-12-12T10:41:25.882Z,8.33
2023-12-12T10:43:54.490Z,6.90
2023-12-12T10:46:24.682Z,8.90
2023-12-12T10:48:54.778Z,7.27
2023-12-12T10:51:24.213Z,7.60
2023-12-12T10:53:52.951Z,9.93
2023-12-12T10:56:21.101Z,6.87
2023-12-12T10:58:50.191Z,7.30
2023-12-12T11:01:17.282Z,7.73
2023-12-12T11:03:44.799Z,8.20
2023-12-12T11:06:12.301Z,8.07
2023-12-12T11:08:39.295Z,8.90
2023-12-12T11:11:14.091Z,7.77
2023-12-12T11:13:44.564Z,8.47
2023-12-12T11:16:12.603Z,10.00
2023-12-12T11:18:41.434Z,8.13
2023-12-12T11:21:09.161Z,9.13
2023-12-12T11:23:54.580Z,8.63
2023-12-12T11:26:27.599Z,7.67
2023-12-12T11:28:56.759Z,9.07
2023-12-12T11:31:34.411Z,8.50
2023-12-12T11:34:12.345Z,9.40
2023-12-12T11:37:00.631Z,7.17
2023-12-12T11:39:39.937Z,7.80
2023-12-12T11:42:17.840Z,7.90
2023-12-12T11:44:56.277Z,8.23
2023-12-12T11:47:26.226Z,7.93
2023-12-12T11:50:13.510Z,8.70
2023-12-12T11:52:40.508Z,6.53
2023-12-12T11:55:08.428Z,6.30
2023-12-12T11:57:35.416Z,17.63
2023-12-12T12:00:05.289Z,8.83
2023-12-12T12:02:32.900Z,10.20
2023-12-12T12:04:59.983Z,7.03
2023-12-12T12:07:27.344Z,9.53
2023-12-12T12:09:54.998Z,6.73
2023-12-12T12:12:22.520Z,6.87
2023-12-12T12:14:49.762Z,7.87
2023-12-12T12:17:16.654Z,6.10
2023-12-12T12:19:45.134Z,8.00
2023-12-12T12:22:13.883Z,9.33
2023-12-12T12:24:46.041Z,9.83
2023-12-12T12:27:16.092Z,8.97
2023-12-12T12:29:43.209Z,8.33
2023-12-12T12:32:19.521Z,7.07
2023-12-12T12:34:47.276Z,9.40
2023-12-12T12:37:33.499Z,8.50
2023-12-12T12:40:00.774Z,9.00
2023-12-12T12:42:34.934Z,8.40
2023-12-12T12:45:04.320Z,7.47
2023-12-12T12:47:31.316Z,8.53
2023-12-12T12:49:59.896Z,10.03
2023-12-12T12:52:27.330Z,7.67
2023-12-12T12:54:54.268Z,8.30
2023-12-12T12:57:21.317Z,7.43
2023-12-12T12:59:48.248Z,7.90
2023-12-12T13:02:15.179Z,8.97
2023-12-12T13:04:42.309Z,8.00
2023-12-12T13:07:09.434Z,6.40
2023-12-12T13:09:36.583Z,8.80
2023-12-12T13:12:07.099Z,7.77
2023-12-12T13:14:34.419Z,9.20
2023-12-12T13:17:01.778Z,7.13
2023-12-12T13:19:28.840Z,7.80
2023-12-12T13:21:56.545Z,6.47
2023-12-12T13:24:23.839Z,7.70
2023-12-12T13:26:51.747Z,8.20
2023-12-12T13:29:19.000Z,6.40
2023-12-12T13:31:46.362Z,9.33
2023-12-12T13:34:13.520Z,7.50
2023-12-12T13:36:41.754Z,7.97
2023-12-12T13:39:16.331Z,7.00
2023-12-12T13:41:45.940Z,7.23
2023-12-12T13:44:13.290Z,8.77
2023-12-12T13:46:40.452Z,9.17
2023-12-12T13:49:07.991Z,7.07
2023-12-12T13:51:44.188Z,6.63
2023-12-12T13:54:15.127Z,8.30
2023-12-12T13:56:42.348Z,8.13
2023-12-12T13:59:09.306Z,7.27
2023-12-12T14:01:36.876Z,7.63
2023-12-12T14:04:04.305Z,6.13
2023-12-12T14:06:31.354Z,5.70
2023-12-12T14:08:58.349Z,4.50
2023-12-12T14:11:26.480Z,6.70
2023-12-12T14:13:53.822Z,6.80
2023-12-12T14:16:28.121Z,6.93
2023-12-12T14:18:57.384Z,5.90
2023-12-12T14:21:25.574Z,5.77
2023-12-12T14:23:52.674Z,5.53
2023-12-12T14:26:23.266Z,6.17
2023-12-12T14:28:51.575Z,10.43
2023-12-12T14:31:19.206Z,8.07
2023-12-12T14:33:47.198Z,9.53
2023-12-12T14:36:15.296Z,7.90
2023-12-12T14:38:45.025Z,12.30
2023-12-12T14:41:12.240Z,12.20
2023-12-12T14:43:46.136Z,10.47
2023-12-12T14:46:13.090Z,12.37
2023-12-12T14:48:40.084Z,13.00
2023-12-12T14:51:07.899Z,14.63
2023-12-12T14:53:34.776Z,12.13
2023-12-12T14:56:01.692Z,12.00
2023-12-12T14:58:28.796Z,14.70
2023-12-12T15:00:55.825Z,13.43
2023-12-12T15:03:24.698Z,15.07
2023-12-12T15:05:52.447Z,15.33
2023-12-12T15:08:19.337Z,17.37
2023-12-12T15:10:46.297Z,18.57
2023-12-12T15:13:13.302Z,19.87
2023-12-12T15:15:40.158Z,17.03
2023-12-12T15:18:07.208Z,16.17
2023-12-12T15:20:34.508Z,17.57
2023-12-12T15:23:01.415Z,19.27
2023-12-12T15:25:35.882Z,19.40
2023-12-12T15:28:24.078Z,22.33
2023-12-12T15:30:53.636Z,27.63
2023-12-12T15:33:20.845Z,20.40
2023-12-12T15:35:47.976Z,19.37
2023-12-12T15:38:15.136Z,66.47
2023-12-12T15:40:42.311Z,24.47
2023-12-12T15:43:10.123Z,22.30
2023-12-12T15:45:37.551Z,21.73
2023-12-12T15:48:04.743Z,21.97
2023-12-12T15:50:31.802Z,22.17
2023-12-12T15:52:58.773Z,23.33
2023-12-12T15:55:25.885Z,24.60
2023-12-12T15:57:53.183Z,24.33
2023-12-12T16:00:20.444Z,26.17
2023-12-12T16:02:48.017Z,22.00
2023-12-12T16:05:15.219Z,23.97
2023-12-12T16:07:42.357Z,24.53
2023-12-12T16:10:11.013Z,22.20
2023-12-12T16:12:38.731Z,24.57
2023-12-12T16:15:06.917Z,21.20
2023-12-12T16:17:34.333Z,20.60
2023-12-12T16:20:05.482Z,23.20
2023-12-12T16:22:35.212Z,20.40
2023-12-12T16:25:04.419Z,20.87
2023-12-12T16:27:31.652Z,20.93
2023-12-12T16:29:58.968Z,20.03
2023-12-12T16:32:25.915Z,22.13
2023-12-12T16:34:53.138Z,20.33
2023-12-12T16:37:20.446Z,20.77
2023-12-12T16:39:47.636Z,21.17
2023-12-12T16:42:16.582Z,18.47
2023-12-12T16:44:43.549Z,20.83
2023-12-12T16:47:11.424Z,20.97
2023-12-12T16:49:38.984Z,24.60
2023-12-12T16:52:06.546Z,18.27
2023-12-12T16:54:33.784Z,18.17
2023-12-12T16:57:01.001Z,21.50
2023-12-12T16:59:28.090Z,21.13
2023-12-12T17:01:57.989Z,20.77
2023-12-12T17:04:30.401Z,19.90
2023-12-12T17:06:57.921Z,22.07
2023-12-12T17:09:26.860Z,19.63
2023-12-12T17:11:54.139Z,20.07
2023-12-12T17:14:21.143Z,20.27
2023-12-12T17:16:48.388Z,19.27
2023-12-12T17:19:15.714Z,21.97
2023-12-12T17:21:42.655Z,19.17
2023-12-12T17:24:12.138Z,15.83
2023-12-12T17:26:39.341Z,16.33
2023-12-12T17:29:07.572Z,17.77
2023-12-12T17:31:34.789Z,16.67
2023-12-12T17:34:02.340Z,18.90
2023-12-12T17:36:29.620Z,13.87
2023-12-12T17:38:57.022Z,17.33
2023-12-12T17:41:24.033Z,18.30
2023-12-12T17:43:51.006Z,14.57
2023-12-12T17:46:18.106Z,14.30
2023-12-12T17:48:45.409Z,16.40
2023-12-12T17:51:12.804Z,15.30
2023-12-12T17:53:40.019Z,16.00
2023-12-12T17:56:07.935Z,14.30
2023-12-12T18:01:02.173Z,14.60
2023-12-12T18:03:33.979Z,14.70
2023-12-12T18:06:02.114Z,14.23
2023-12-12T18:08:29.759Z,11.53
2023-12-12T18:10:57.131Z,15.80
2023-12-12T18:13:24.199Z,15.70
2023-12-12T18:15:51.204Z,13.40
2023-12-12T18:18:18.569Z,9.20
2023-12-12T18:20:49.261Z,10.00
2023-12-12T18:23:16.400Z,7.67
2023-12-12T18:25:43.980Z,9.93
2023-12-12T18:28:11.073Z,10.77
2023-12-12T18:30:44.697Z,8.73
2023-12-12T18:33:12.142Z,10.20
2023-12-12T18:35:39.203Z,9.73
2023-12-12T18:38:06.832Z,11.90
2023-12-12T18:40:33.969Z,8.57
2023-12-12T18:43:01.022Z,7.37
2023-12-12T18:45:28.142Z,7.77
2023-12-12T18:47:57.167Z,8.80
2023-12-12T18:50:27.374Z,9.97
2023-12-12T18:52:54.778Z,10.00
2023-12-12T18:55:21.735Z,9.03
2023-12-12T18:57:48.953Z,11.17
2023-12-12T19:00:16.647Z,8.77
2023-12-12T19:02:44.204Z,8.60
2023-12-12T19:05:13.366Z,8.50
2023-12-12T19:07:41.875Z,6.60
2023-12-12T19:10:11.383Z,6.53
2023-12-12T19:12:48.998Z,6.67
2023-12-12T19:15:17.473Z,8.90
2023-12-12T19:17:45.204Z,8.67
2023-12-12T19:20:13.118Z,7.07
2023-12-12T19:22:40.713Z,7.73
2023-12-12T19:25:08.430Z,8.37
2023-12-12T19:27:36.394Z,5.80
2023-12-12T19:30:05.290Z,8.83
2023-12-12T19:32:36.598Z,10.60
2023-12-12T19:35:05.222Z,8.83
2023-12-12T19:37:32.589Z,6.67
2023-12-12T19:40:00.272Z,9.30
2023-12-12T19:42:27.393Z,8.00
2023-12-12T19:44:54.949Z,8.00
2023-12-12T19:47:22.461Z,8.00
2023-12-12T19:49:49.485Z,7.80
2023-12-12T19:52:16.626Z,6.70
2023-12-12T19:54:43.705Z,6.20
2023-12-12T19:57:13.870Z,6.70
2023-12-12T19:59:49.550Z,7.80
2023-12-12T20:02:17.612Z,6.83
2023-12-12T20:04:44.729Z,7.40
2023-12-12T20:07:12.083Z,6.30
2023-12-12T20:09:42.527Z,7.97
2023-12-12T20:12:11.066Z,9.60
2023-12-12T20:14:38.416Z,9.17
2023-12-12T20:17:06.293Z,7.83
2023-12-12T20:19:33.932Z,8.27
2023-12-12T20:22:01.092Z,7.83
2023-12-12T20:24:29.525Z,6.70
2023-12-12T20:26:57.325Z,6.97
2023-12-12T20:29:24.402Z,7.20
2023-12-12T20:31:51.617Z,8.47
2023-12-12T20:34:18.673Z,7.60
2023-12-12T20:36:45.739Z,8.83
2023-12-12T20:39:13.757Z,7.17
2023-12-12T20:41:47.858Z,8.37
2023-12-12T20:44:15.055Z,10.73
2023-12-12T20:46:42.806Z,9.10
2023-12-12T20:49:10.311Z,10.27
2023-12-12T20:51:42.107Z,9.17
2023-12-12T20:54:10.365Z,10.13
2023-12-12T20:56:43.094Z,8.73
2023-12-12T20:59:11.635Z,7.70
2023-12-12T21:01:38.680Z,10.03
2023-12-12T21:04:06.186Z,7.23
2023-12-12T21:06:33.211Z,9.13
2023-12-12T21:09:00.312Z,7.27
2023-12-12T21:11:27.592Z,6.90
2023-12-12T21:13:54.946Z,9.93
2023-12-12T21:16:24.156Z,8.50
2023-12-12T21:18:52.125Z,9.07
2023-12-12T21:21:19.127Z,8.30
2023-12-12T21:23:46.168Z,8.07
2023-12-12T21:26:13.102Z,7.93
2023-12-12T21:28:40.565Z,9.83
2023-12-12T21:31:09.910Z,9.63
2023-12-12T21:33:37.113Z,9.43
2023-12-12T21:36:04.523Z,9.17
2023-12-12T21:38:33.929Z,13.43
2023-12-12T21:41:02.269Z,9.63
2023-12-12T21:43:32.728Z,10.33
2023-12-12T21:45:59.697Z,9.17
2023-12-12T21:48:27.249Z,9.93
2023-12-12T21:50:54.404Z,9.67
2023-12-12T21:53:21.305Z,11.23
2023-12-12T21:55:49.433Z,9.07
2023-12-12T21:58:17.322Z,10.07
2023-12-12T22:00:44.489Z,11.57
2023-12-12T22:03:11.761Z,9.80
2023-12-12T22:05:38.742Z,11.10
2023-12-12T22:08:05.641Z,11.70
2023-12-12T22:10:32.797Z,11.70
2023-12-12T22:13:00.180Z,11.00
2023-12-12T22:15:27.393Z,10.63
2023-12-12T22:17:54.666Z,10.63
2023-12-12T22:20:23.183Z,14.07
2023-12-12T22:22:50.879Z,13.03
2023-12-12T22:25:18.248Z,9.93
2023-12-12T22:27:45.303Z,9.90
2023-12-12T22:30:12.823Z,12.03
2023-12-12T22:32:40.066Z,9.60
2023-12-12T22:35:07.531Z,10.40
2023-12-12T22:37:34.874Z,10.97
2023-12-12T22:40:03.019Z,10.10
2023-12-12T22:42:31.319Z,9.97
2023-12-12T22:44:58.274Z,11.33
2023-12-12T22:47:25.675Z,11.43
2023-12-12T22:49:53.035Z,11.00
2023-12-12T22:52:20.466Z,10.00
2023-12-12T22:54:47.516Z,11.77
2023-12-12T22:57:14.392Z,10.77
2023-12-12T22:59:41.434Z,10.17
2023-12-12T23:02:08.617Z,13.00
2023-12-12T23:04:37.578Z,10.83
2023-12-12T23:07:06.698Z,10.40
2023-12-12T23:09:33.771Z,10.23
2023-12-12T23:12:00.821Z,11.30
2023-12-12T23:14:28.085Z,10.40
2023-12-12T23:16:55.368Z,10.27
2023-12-12T23:19:23.429Z,14.07
2023-12-12T23:21:50.521Z,11.67
2023-12-12T23:24:18.326Z,11.70
2023-12-12T23:26:46.149Z,10.83
2023-12-12T23:29:13.029Z,11.53
2023-12-12T23:31:40.865Z,11.17
2023-12-12T23:34:08.236Z,11.20
2023-12-12T23:36:42.219Z,12.73
2023-12-12T23:39:09.596Z,11.63
2023-12-12T23:41:46.126Z,11.60
2023-12-12T23:44:17.240Z,11.40
2023-12-12T23:46:45.492Z,11.00
2023-12-12T23:49:16.347Z,13.67
2023-12-12T23:51:43.331Z,13.93
2023-12-12T23:54:10.604Z,10.50
2023-12-12T23:56:37.699Z,11.37
2023-12-12T23:59:04.638Z,12.23
